sensor_id;sensor_type;location;lat;lon;timestamp;P1;durP1;ratioP1;P2;durP2;ratioP2
60352;SDS011;46196;52.970;6.954;2022-12-18T00:02:12;57.95;;;22.00;;
60352;SDS011;46196;52.970;6.954;2022-12-18T00:04:37;51.80;;;20.88;;
60352;SDS011;46196;52.970;6.954;2022-12-18T00:07:03;65.10;;;21.58;;
60352;SDS011;46196;52.970;6.954;2022-12-18T00:09:29;58.20;;;22.20;;
60352;SDS011;46196;52.970;6.954;2022-12-18T00:11:55;54.22;;;21.23;;
60352;SDS011;46196;52.970;6.954;2022-12-18T00:14:21;56.85;;;21.42;;
60352;SDS011;46196;52.970;6.954;2022-12-18T00:16:46;68.82;;;22.30;;
60352;SDS011;46196;52.970;6.954;2022-12-18T00:19:13;71.00;;;22.38;;
60352;SDS011;46196;52.970;6.954;2022-12-18T00:21:39;79.85;;;29.48;;
60352;SDS011;46196;52.970;6.954;2022-12-18T00:24:05;66.53;;;26.05;;
60352;SDS011;46196;52.970;6.954;2022-12-18T00:26:32;50.70;;;18.80;;
60352;SDS011;46196;52.970;6.954;2022-12-18T00:28:59;68.90;;;22.55;;
60352;SDS011;46196;52.970;6.954;2022-12-18T00:31:26;63.80;;;25.00;;
60352;SDS011;46196;52.970;6.954;2022-12-18T00:33:55;54.03;;;20.70;;
60352;SDS011;46196;52.970;6.954;2022-12-18T00:36:24;46.95;;;19.13;;
60352;SDS011;46196;52.970;6.954;2022-12-18T00:38:51;51.78;;;21.13;;
60352;SDS011;46196;52.970;6.954;2022-12-18T00:41:19;60.90;;;22.90;;
60352;SDS011;46196;52.970;6.954;2022-12-18T00:44:04;59.28;;;24.55;;
60352;SDS011;46196;52.970;6.954;2022-12-18T00:46:31;67.13;;;23.70;;
60352;SDS011;46196;52.970;6.954;2022-12-18T00:48:57;64.47;;;25.63;;
60352;SDS011;46196;52.970;6.954;2022-12-18T00:51:23;47.97;;;19.15;;
60352;SDS011;46196;52.970;6.954;2022-12-18T00:53:49;61.03;;;21.52;;
60352;SDS011;46196;52.970;6.954;2022-12-18T00:56:16;56.42;;;22.75;;
60352;SDS011;46196;52.970;6.954;2022-12-18T00:58:42;48.40;;;20.25;;
60352;SDS011;46196;52.970;6.954;2022-12-18T01:01:08;54.63;;;21.80;;
60352;SDS011;46196;52.970;6.954;2022-12-18T01:03:34;57.22;;;23.33;;
60352;SDS011;46196;52.970;6.954;2022-12-18T01:06:04;57.42;;;21.25;;
60352;SDS011;46196;52.970;6.954;2022-12-18T01:08:35;57.58;;;23.40;;
60352;SDS011;46196;52.970;6.954;2022-12-18T01:11:06;62.85;;;24.88;;
60352;SDS011;46196;52.970;6.954;2022-12-18T01:13:36;55.92;;;22.77;;
60352;SDS011;46196;52.970;6.954;2022-12-18T01:16:02;62.70;;;25.77;;
60352;SDS011;46196;52.970;6.954;2022-12-18T01:18:28;51.90;;;20.65;;
60352;SDS011;46196;52.970;6.954;2022-12-18T01:20:54;53.72;;;20.70;;
60352;SDS011;46196;52.970;6.954;2022-12-18T01:23:20;54.20;;;21.88;;
60352;SDS011;46196;52.970;6.954;2022-12-18T01:25:45;53.90;;;21.77;;
60352;SDS011;46196;52.970;6.954;2022-12-18T01:28:11;55.25;;;22.88;;
60352;SDS011;46196;52.970;6.954;2022-12-18T01:30:37;51.70;;;21.42;;
60352;SDS011;46196;52.970;6.954;2022-12-18T01:33:06;52.33;;;21.38;;
60352;SDS011;46196;52.970;6.954;2022-12-18T01:35:32;52.08;;;21.52;;
60352;SDS011;46196;52.970;6.954;2022-12-18T01:37:57;55.38;;;22.08;;
60352;SDS011;46196;52.970;6.954;2022-12-18T01:40:23;60.65;;;22.33;;
60352;SDS011;46196;52.970;6.954;2022-12-18T01:42:50;56.60;;;23.73;;
60352;SDS011;46196;52.970;6.954;2022-12-18T01:50:32;57.55;;;21.63;;
60352;SDS011;46196;52.970;6.954;2022-12-18T01:55:57;53.50;;;22.60;;
60352;SDS011;46196;52.970;6.954;2022-12-18T01:58:31;43.97;;;21.10;;
60352;SDS011;46196;52.970;6.954;2022-12-18T02:01:08;54.58;;;22.40;;
60352;SDS011;46196;52.970;6.954;2022-12-18T02:03:34;58.25;;;22.00;;
60352;SDS011;46196;52.970;6.954;2022-12-18T02:14:18;60.45;;;23.40;;
60352;SDS011;46196;52.970;6.954;2022-12-18T02:16:57;57.58;;;22.55;;
60352;SDS011;46196;52.970;6.954;2022-12-18T02:19:37;60.58;;;24.88;;
60352;SDS011;46196;52.970;6.954;2022-12-18T02:24:56;64.13;;;24.73;;
60352;SDS011;46196;52.970;6.954;2022-12-18T02:27:43;65.90;;;23.98;;
60352;SDS011;46196;52.970;6.954;2022-12-18T02:30:11;56.40;;;22.60;;
60352;SDS011;46196;52.970;6.954;2022-12-18T02:32:39;50.88;;;21.20;;
60352;SDS011;46196;52.970;6.954;2022-12-18T02:35:10;50.17;;;21.88;;
60352;SDS011;46196;52.970;6.954;2022-12-18T02:37:42;53.58;;;22.42;;
60352;SDS011;46196;52.970;6.954;2022-12-18T02:40:10;50.40;;;21.40;;
60352;SDS011;46196;52.970;6.954;2022-12-18T02:42:37;47.85;;;20.98;;
60352;SDS011;46196;52.970;6.954;2022-12-18T02:45:03;46.80;;;19.98;;
60352;SDS011;46196;52.970;6.954;2022-12-18T02:47:31;41.13;;;18.42;;
60352;SDS011;46196;52.970;6.954;2022-12-18T02:50:14;38.03;;;17.40;;
60352;SDS011;46196;52.970;6.954;2022-12-18T02:53:06;40.60;;;18.75;;
60352;SDS011;46196;52.970;6.954;2022-12-18T02:56:19;39.17;;;19.33;;
60352;SDS011;46196;52.970;6.954;2022-12-18T02:58:56;34.72;;;16.25;;
60352;SDS011;46196;52.970;6.954;2022-12-18T03:04:02;36.95;;;17.67;;
60352;SDS011;46196;52.970;6.954;2022-12-18T03:06:35;38.22;;;16.90;;
60352;SDS011;46196;52.970;6.954;2022-12-18T03:09:12;36.72;;;16.58;;
60352;SDS011;46196;52.970;6.954;2022-12-18T03:11:46;33.53;;;18.33;;
60352;SDS011;46196;52.970;6.954;2022-12-18T03:14:38;38.92;;;16.60;;
60352;SDS011;46196;52.970;6.954;2022-12-18T03:17:07;37.88;;;17.52;;
60352;SDS011;46196;52.970;6.954;2022-12-18T03:19:38;33.33;;;15.93;;
60352;SDS011;46196;52.970;6.954;2022-12-18T03:22:06;39.08;;;17.25;;
60352;SDS011;46196;52.970;6.954;2022-12-18T03:24:33;35.53;;;16.23;;
60352;SDS011;46196;52.970;6.954;2022-12-18T03:27:06;40.30;;;17.00;;
60352;SDS011;46196;52.970;6.954;2022-12-18T03:30:18;35.83;;;15.75;;
60352;SDS011;46196;52.970;6.954;2022-12-18T03:32:48;33.63;;;16.55;;
60352;SDS011;46196;52.970;6.954;2022-12-18T03:35:22;32.92;;;16.80;;
60352;SDS011;46196;52.970;6.954;2022-12-18T03:37:53;36.33;;;15.23;;
60352;SDS011;46196;52.970;6.954;2022-12-18T03:40:20;39.40;;;17.73;;
60352;SDS011;46196;52.970;6.954;2022-12-18T03:42:52;42.22;;;16.77;;
60352;SDS011;46196;52.970;6.954;2022-12-18T03:45:32;40.30;;;17.70;;
60352;SDS011;46196;52.970;6.954;2022-12-18T03:48:10;43.60;;;20.25;;
60352;SDS011;46196;52.970;6.954;2022-12-18T03:51:17;45.30;;;19.38;;
60352;SDS011;46196;52.970;6.954;2022-12-18T03:53:51;39.53;;;16.60;;
60352;SDS011;46196;52.970;6.954;2022-12-18T03:56:30;39.60;;;17.98;;
60352;SDS011;46196;52.970;6.954;2022-12-18T03:59:02;36.53;;;16.27;;
60352;SDS011;46196;52.970;6.954;2022-12-18T04:01:33;42.38;;;17.90;;
60352;SDS011;46196;52.970;6.954;2022-12-18T04:04:02;31.88;;;16.50;;
60352;SDS011;46196;52.970;6.954;2022-12-18T04:06:29;38.25;;;16.50;;
60352;SDS011;46196;52.970;6.954;2022-12-18T04:11:25;35.83;;;14.73;;
60352;SDS011;46196;52.970;6.954;2022-12-18T04:13:52;27.92;;;15.00;;
60352;SDS011;46196;52.970;6.954;2022-12-18T04:16:21;35.65;;;17.63;;
60352;SDS011;46196;52.970;6.954;2022-12-18T04:18:47;35.30;;;16.27;;
60352;SDS011;46196;52.970;6.954;2022-12-18T04:21:12;33.08;;;16.20;;
60352;SDS011;46196;52.970;6.954;2022-12-18T04:23:38;32.42;;;16.88;;
60352;SDS011;46196;52.970;6.954;2022-12-18T04:26:04;33.78;;;14.75;;
60352;SDS011;46196;52.970;6.954;2022-12-18T04:28:29;31.10;;;15.80;;
60352;SDS011;46196;52.970;6.954;2022-12-18T04:30:55;35.08;;;14.98;;
60352;SDS011;46196;52.970;6.954;2022-12-18T04:33:21;29.50;;;15.32;;
60352;SDS011;46196;52.970;6.954;2022-12-18T04:35:46;34.33;;;16.98;;
60352;SDS011;46196;52.970;6.954;2022-12-18T04:38:12;31.08;;;16.00;;
60352;SDS011;46196;52.970;6.954;2022-12-18T04:40:38;36.08;;;15.93;;
60352;SDS011;46196;52.970;6.954;2022-12-18T04:43:04;33.25;;;16.38;;
60352;SDS011;46196;52.970;6.954;2022-12-18T04:45:30;32.72;;;14.85;;
60352;SDS011;46196;52.970;6.954;2022-12-18T04:48:00;27.42;;;14.55;;
60352;SDS011;46196;52.970;6.954;2022-12-18T04:50:26;29.75;;;14.30;;
60352;SDS011;46196;52.970;6.954;2022-12-18T04:52:52;31.05;;;13.90;;
60352;SDS011;46196;52.970;6.954;2022-12-18T04:55:18;27.35;;;14.82;;
60352;SDS011;46196;52.970;6.954;2022-12-18T04:57:44;27.55;;;14.55;;
60352;SDS011;46196;52.970;6.954;2022-12-18T05:00:10;29.08;;;14.38;;
60352;SDS011;46196;52.970;6.954;2022-12-18T05:02:36;27.27;;;13.55;;
60352;SDS011;46196;52.970;6.954;2022-12-18T05:05:02;25.92;;;13.55;;
60352;SDS011;46196;52.970;6.954;2022-12-18T05:07:28;27.65;;;14.88;;
60352;SDS011;46196;52.970;6.954;2022-12-18T05:09:54;28.63;;;14.07;;
60352;SDS011;46196;52.970;6.954;2022-12-18T05:12:19;26.52;;;13.90;;
60352;SDS011;46196;52.970;6.954;2022-12-18T05:14:45;25.42;;;13.57;;
60352;SDS011;46196;52.970;6.954;2022-12-18T05:17:11;29.40;;;13.18;;
60352;SDS011;46196;52.970;6.954;2022-12-18T05:19:37;25.08;;;13.27;;
60352;SDS011;46196;52.970;6.954;2022-12-18T05:22:03;25.58;;;14.07;;
60352;SDS011;46196;52.970;6.954;2022-12-18T05:24:28;25.85;;;13.70;;
60352;SDS011;46196;52.970;6.954;2022-12-18T05:26:54;25.63;;;13.90;;
60352;SDS011;46196;52.970;6.954;2022-12-18T05:29:20;25.95;;;13.70;;
60352;SDS011;46196;52.970;6.954;2022-12-18T05:31:46;24.75;;;13.50;;
60352;SDS011;46196;52.970;6.954;2022-12-18T05:34:11;26.65;;;14.45;;
60352;SDS011;46196;52.970;6.954;2022-12-18T05:36:37;25.02;;;12.80;;
60352;SDS011;46196;52.970;6.954;2022-12-18T05:39:04;21.25;;;13.05;;
60352;SDS011;46196;52.970;6.954;2022-12-18T05:41:29;19.83;;;12.45;;
60352;SDS011;46196;52.970;6.954;2022-12-18T05:43:55;25.65;;;13.05;;
60352;SDS011;46196;52.970;6.954;2022-12-18T05:46:21;24.58;;;12.50;;
60352;SDS011;46196;52.970;6.954;2022-12-18T05:48:47;25.05;;;13.40;;
60352;SDS011;46196;52.970;6.954;2022-12-18T05:51:15;22.50;;;12.65;;
60352;SDS011;46196;52.970;6.954;2022-12-18T05:53:43;27.88;;;14.30;;
60352;SDS011;46196;52.970;6.954;2022-12-18T05:56:10;26.80;;;13.13;;
60352;SDS011;46196;52.970;6.954;2022-12-18T05:58:38;23.33;;;12.20;;
60352;SDS011;46196;52.970;6.954;2022-12-18T06:01:14;23.90;;;13.63;;
60352;SDS011;46196;52.970;6.954;2022-12-18T06:03:42;26.35;;;13.35;;
60352;SDS011;46196;52.970;6.954;2022-12-18T06:06:27;28.52;;;13.55;;
60352;SDS011;46196;52.970;6.954;2022-12-18T06:08:54;29.20;;;14.20;;
60352;SDS011;46196;52.970;6.954;2022-12-18T06:11:21;22.38;;;12.70;;
60352;SDS011;46196;52.970;6.954;2022-12-18T06:13:52;23.00;;;12.68;;
60352;SDS011;46196;52.970;6.954;2022-12-18T06:18:45;24.38;;;12.73;;
60352;SDS011;46196;52.970;6.954;2022-12-18T06:21:11;22.35;;;12.10;;
60352;SDS011;46196;52.970;6.954;2022-12-18T06:23:36;24.83;;;13.68;;
60352;SDS011;46196;52.970;6.954;2022-12-18T06:26:03;19.27;;;11.55;;
60352;SDS011;46196;52.970;6.954;2022-12-18T06:28:30;22.08;;;11.90;;
60352;SDS011;46196;52.970;6.954;2022-12-18T06:30:56;25.33;;;13.80;;
60352;SDS011;46196;52.970;6.954;2022-12-18T06:33:22;22.52;;;12.73;;
60352;SDS011;46196;52.970;6.954;2022-12-18T06:38:17;21.63;;;11.63;;
60352;SDS011;46196;52.970;6.954;2022-12-18T06:40:43;26.42;;;11.80;;
60352;SDS011;46196;52.970;6.954;2022-12-18T06:43:09;23.10;;;11.80;;
60352;SDS011;46196;52.970;6.954;2022-12-18T06:45:34;23.95;;;12.82;;
60352;SDS011;46196;52.970;6.954;2022-12-18T06:48:00;21.00;;;12.13;;
60352;SDS011;46196;52.970;6.954;2022-12-18T06:50:26;21.88;;;12.93;;
60352;SDS011;46196;52.970;6.954;2022-12-18T06:52:52;25.40;;;12.38;;
60352;SDS011;46196;52.970;6.954;2022-12-18T06:55:18;24.10;;;12.98;;
60352;SDS011;46196;52.970;6.954;2022-12-18T06:57:43;22.38;;;11.15;;
60352;SDS011;46196;52.970;6.954;2022-12-18T07:00:10;21.58;;;11.52;;
60352;SDS011;46196;52.970;6.954;2022-12-18T07:02:36;19.75;;;10.98;;
60352;SDS011;46196;52.970;6.954;2022-12-18T07:05:01;21.10;;;11.35;;
60352;SDS011;46196;52.970;6.954;2022-12-18T07:07:27;19.58;;;11.95;;
60352;SDS011;46196;52.970;6.954;2022-12-18T07:09:53;22.15;;;11.32;;
60352;SDS011;46196;52.970;6.954;2022-12-18T07:12:19;24.02;;;11.23;;
60352;SDS011;46196;52.970;6.954;2022-12-18T07:14:44;21.85;;;11.90;;
60352;SDS011;46196;52.970;6.954;2022-12-18T07:17:10;17.17;;;10.10;;
60352;SDS011;46196;52.970;6.954;2022-12-18T07:19:36;20.13;;;10.60;;
60352;SDS011;46196;52.970;6.954;2022-12-18T07:22:02;21.33;;;10.80;;
60352;SDS011;46196;52.970;6.954;2022-12-18T07:24:27;20.20;;;10.30;;
60352;SDS011;46196;52.970;6.954;2022-12-18T07:26:53;17.50;;;9.73;;
60352;SDS011;46196;52.970;6.954;2022-12-18T07:29:19;21.40;;;10.95;;
60352;SDS011;46196;52.970;6.954;2022-12-18T07:31:45;22.30;;;11.07;;
60352;SDS011;46196;52.970;6.954;2022-12-18T07:34:11;18.10;;;10.52;;
60352;SDS011;46196;52.970;6.954;2022-12-18T07:36:38;18.33;;;10.55;;
60352;SDS011;46196;52.970;6.954;2022-12-18T07:39:03;25.35;;;12.18;;
60352;SDS011;46196;52.970;6.954;2022-12-18T07:41:29;22.33;;;9.90;;
60352;SDS011;46196;52.970;6.954;2022-12-18T07:43:55;18.00;;;10.38;;
60352;SDS011;46196;52.970;6.954;2022-12-18T07:46:21;19.88;;;10.02;;
60352;SDS011;46196;52.970;6.954;2022-12-18T07:48:47;19.73;;;11.50;;
60352;SDS011;46196;52.970;6.954;2022-12-18T07:51:13;21.23;;;11.45;;
60352;SDS011;46196;52.970;6.954;2022-12-18T07:53:39;18.40;;;9.57;;
60352;SDS011;46196;52.970;6.954;2022-12-18T07:56:07;18.13;;;11.75;;
60352;SDS011;46196;52.970;6.954;2022-12-18T07:58:34;23.30;;;12.00;;
60352;SDS011;46196;52.970;6.954;2022-12-18T08:03:29;17.85;;;9.10;;
60352;SDS011;46196;52.970;6.954;2022-12-18T08:06:02;17.73;;;10.73;;
60352;SDS011;46196;52.970;6.954;2022-12-18T08:08:29;18.45;;;9.80;;
60352;SDS011;46196;52.970;6.954;2022-12-18T08:10:56;18.92;;;10.43;;
60352;SDS011;46196;52.970;6.954;2022-12-18T08:13:22;18.17;;;10.05;;
60352;SDS011;46196;52.970;6.954;2022-12-18T08:15:55;17.60;;;9.75;;
60352;SDS011;46196;52.970;6.954;2022-12-18T08:18:22;19.92;;;9.20;;
60352;SDS011;46196;52.970;6.954;2022-12-18T08:20:48;16.02;;;9.73;;
60352;SDS011;46196;52.970;6.954;2022-12-18T08:23:14;19.02;;;10.20;;
60352;SDS011;46196;52.970;6.954;2022-12-18T08:25:40;19.67;;;9.93;;
60352;SDS011;46196;52.970;6.954;2022-12-18T08:28:06;17.77;;;8.85;;
60352;SDS011;46196;52.970;6.954;2022-12-18T08:30:32;15.52;;;9.20;;
60352;SDS011;46196;52.970;6.954;2022-12-18T08:32:57;19.05;;;11.20;;
60352;SDS011;46196;52.970;6.954;2022-12-18T08:35:23;16.20;;;9.25;;
60352;SDS011;46196;52.970;6.954;2022-12-18T08:37:49;17.25;;;8.68;;
60352;SDS011;46196;52.970;6.954;2022-12-18T08:40:15;15.35;;;8.55;;
60352;SDS011;46196;52.970;6.954;2022-12-18T08:42:41;14.95;;;8.95;;
60352;SDS011;46196;52.970;6.954;2022-12-18T08:45:25;17.38;;;8.40;;
60352;SDS011;46196;52.970;6.954;2022-12-18T08:47:51;13.77;;;8.98;;
60352;SDS011;46196;52.970;6.954;2022-12-18T08:50:17;12.45;;;7.15;;
60352;SDS011;46196;52.970;6.954;2022-12-18T08:52:43;14.88;;;9.15;;
60352;SDS011;46196;52.970;6.954;2022-12-18T08:55:09;13.10;;;7.57;;
60352;SDS011;46196;52.970;6.954;2022-12-18T08:57:35;10.90;;;7.72;;
60352;SDS011;46196;52.970;6.954;2022-12-18T09:00:01;15.65;;;8.43;;
60352;SDS011;46196;52.970;6.954;2022-12-18T09:02:27;13.07;;;8.40;;
60352;SDS011;46196;52.970;6.954;2022-12-18T09:04:53;13.07;;;7.85;;
60352;SDS011;46196;52.970;6.954;2022-12-18T09:07:18;12.02;;;7.55;;
60352;SDS011;46196;52.970;6.954;2022-12-18T09:09:44;15.60;;;8.30;;
60352;SDS011;46196;52.970;6.954;2022-12-18T09:12:10;11.57;;;6.97;;
60352;SDS011;46196;52.970;6.954;2022-12-18T09:14:36;12.80;;;8.20;;
60352;SDS011;46196;52.970;6.954;2022-12-18T09:17:01;14.05;;;8.45;;
60352;SDS011;46196;52.970;6.954;2022-12-18T09:19:27;12.55;;;6.97;;
60352;SDS011;46196;52.970;6.954;2022-12-18T09:21:53;12.80;;;8.15;;
60352;SDS011;46196;52.970;6.954;2022-12-18T09:24:19;12.35;;;7.63;;
60352;SDS011;46196;52.970;6.954;2022-12-18T09:26:45;11.18;;;7.18;;
60352;SDS011;46196;52.970;6.954;2022-12-18T09:29:11;11.38;;;7.57;;
60352;SDS011;46196;52.970;6.954;2022-12-18T09:31:36;12.52;;;8.05;;
60352;SDS011;46196;52.970;6.954;2022-12-18T09:34:03;11.35;;;7.43;;
60352;SDS011;46196;52.970;6.954;2022-12-18T09:36:32;8.52;;;6.35;;
60352;SDS011;46196;52.970;6.954;2022-12-18T09:38:57;11.80;;;7.20;;
60352;SDS011;46196;52.970;6.954;2022-12-18T09:44:15;11.18;;;6.65;;
60352;SDS011;46196;52.970;6.954;2022-12-18T09:47:17;10.00;;;6.95;;
60352;SDS011;46196;52.970;6.954;2022-12-18T09:50:04;13.13;;;6.88;;
60352;SDS011;46196;52.970;6.954;2022-12-18T09:52:41;11.43;;;6.55;;
60352;SDS011;46196;52.970;6.954;2022-12-18T09:55:22;9.43;;;6.60;;
60352;SDS011;46196;52.970;6.954;2022-12-18T09:58:00;8.98;;;6.10;;
60352;SDS011;46196;52.970;6.954;2022-12-18T10:00:32;9.38;;;6.32;;
60352;SDS011;46196;52.970;6.954;2022-12-18T10:02:59;9.57;;;6.63;;
60352;SDS011;46196;52.970;6.954;2022-12-18T10:08:05;9.25;;;6.22;;
60352;SDS011;46196;52.970;6.954;2022-12-18T10:10:48;10.13;;;6.63;;
60352;SDS011;46196;52.970;6.954;2022-12-18T10:16:12;17.30;;;10.88;;
60352;SDS011;46196;52.970;6.954;2022-12-18T10:26:51;17.83;;;11.40;;
60352;SDS011;46196;52.970;6.954;2022-12-18T10:29:21;27.33;;;17.10;;
60352;SDS011;46196;52.970;6.954;2022-12-18T10:31:47;32.25;;;19.77;;
60352;SDS011;46196;52.970;6.954;2022-12-18T10:34:13;20.02;;;12.80;;
60352;SDS011;46196;52.970;6.954;2022-12-18T10:36:39;12.40;;;9.10;;
60352;SDS011;46196;52.970;6.954;2022-12-18T10:39:18;19.10;;;11.00;;
60352;SDS011;46196;52.970;6.954;2022-12-18T10:41:47;14.05;;;9.07;;
60352;SDS011;46196;52.970;6.954;2022-12-18T10:46:40;9.77;;;6.85;;
60352;SDS011;46196;52.970;6.954;2022-12-18T10:49:17;11.07;;;7.20;;
60352;SDS011;46196;52.970;6.954;2022-12-18T10:51:51;12.77;;;7.18;;
60352;SDS011;46196;52.970;6.954;2022-12-18T10:54:30;9.97;;;6.27;;
60352;SDS011;46196;52.970;6.954;2022-12-18T10:59:54;9.73;;;5.68;;
60352;SDS011;46196;52.970;6.954;2022-12-18T11:04:51;7.72;;;5.55;;
60352;SDS011;46196;52.970;6.954;2022-12-18T11:07:18;9.48;;;5.97;;
60352;SDS011;46196;52.970;6.954;2022-12-18T11:09:43;9.68;;;6.32;;
60352;SDS011;46196;52.970;6.954;2022-12-18T11:12:24;6.47;;;4.78;;
60352;SDS011;46196;52.970;6.954;2022-12-18T11:14:52;9.65;;;5.88;;
60352;SDS011;46196;52.970;6.954;2022-12-18T11:17:31;7.82;;;5.20;;
60352;SDS011;46196;52.970;6.954;2022-12-18T11:20:04;9.97;;;5.40;;
60352;SDS011;46196;52.970;6.954;2022-12-18T11:22:35;7.63;;;5.38;;
60352;SDS011;46196;52.970;6.954;2022-12-18T11:25:05;7.95;;;5.63;;
60352;SDS011;46196;52.970;6.954;2022-12-18T11:27:53;7.63;;;4.80;;
60352;SDS011;46196;52.970;6.954;2022-12-18T11:33:05;7.43;;;4.80;;
60352;SDS011;46196;52.970;6.954;2022-12-18T11:35:52;5.53;;;4.22;;
60352;SDS011;46196;52.970;6.954;2022-12-18T11:38:26;8.48;;;4.25;;
60352;SDS011;46196;52.970;6.954;2022-12-18T11:40:56;7.22;;;5.45;;
60352;SDS011;46196;52.970;6.954;2022-12-18T11:43:45;9.38;;;5.07;;
60352;SDS011;46196;52.970;6.954;2022-12-18T11:46:13;6.63;;;4.90;;
60352;SDS011;46196;52.970;6.954;2022-12-18T11:49:01;8.60;;;5.22;;
60352;SDS011;46196;52.970;6.954;2022-12-18T11:51:36;7.55;;;5.05;;
60352;SDS011;46196;52.970;6.954;2022-12-18T11:54:14;8.40;;;5.30;;
60352;SDS011;46196;52.970;6.954;2022-12-18T11:56:48;8.40;;;5.43;;
60352;SDS011;46196;52.970;6.954;2022-12-18T12:01:58;5.40;;;4.20;;
60352;SDS011;46196;52.970;6.954;2022-12-18T12:10:25;6.43;;;4.75;;
60352;SDS011;46196;52.970;6.954;2022-12-18T12:16:03;7.88;;;5.18;;
60352;SDS011;46196;52.970;6.954;2022-12-18T12:18:41;9.38;;;5.35;;
60352;SDS011;46196;52.970;6.954;2022-12-18T12:21:25;9.02;;;5.65;;
60352;SDS011;46196;52.970;6.954;2022-12-18T12:30:21;7.05;;;5.03;;
60352;SDS011;46196;52.970;6.954;2022-12-18T12:35:51;7.18;;;5.03;;
60352;SDS011;46196;52.970;6.954;2022-12-18T12:38:25;7.25;;;4.63;;
60352;SDS011;46196;52.970;6.954;2022-12-18T12:41:05;7.82;;;4.88;;
60352;SDS011;46196;52.970;6.954;2022-12-18T12:43:55;8.63;;;5.30;;
60352;SDS011;46196;52.970;6.954;2022-12-18T12:46:23;7.95;;;4.72;;
60352;SDS011;46196;52.970;6.954;2022-12-18T12:48:58;7.35;;;4.72;;
60352;SDS011;46196;52.970;6.954;2022-12-18T12:51:37;8.40;;;4.72;;
60352;SDS011;46196;52.970;6.954;2022-12-18T12:54:08;8.90;;;4.90;;
60352;SDS011;46196;52.970;6.954;2022-12-18T12:56:50;9.07;;;5.63;;
60352;SDS011;46196;52.970;6.954;2022-12-18T13:04:57;6.38;;;4.28;;
60352;SDS011;46196;52.970;6.954;2022-12-18T13:07:29;8.52;;;5.55;;
60352;SDS011;46196;52.970;6.954;2022-12-18T13:15:30;8.50;;;5.95;;
60352;SDS011;46196;52.970;6.954;2022-12-18T13:18:03;7.57;;;5.32;;
60352;SDS011;46196;52.970;6.954;2022-12-18T13:20:37;8.55;;;5.97;;
60352;SDS011;46196;52.970;6.954;2022-12-18T13:23:19;7.40;;;5.22;;
60352;SDS011;46196;52.970;6.954;2022-12-18T13:25:52;7.47;;;5.38;;
60352;SDS011;46196;52.970;6.954;2022-12-18T13:31:13;9.63;;;5.85;;
60352;SDS011;46196;52.970;6.954;2022-12-18T13:34:11;9.77;;;6.45;;
60352;SDS011;46196;52.970;6.954;2022-12-18T13:36:45;10.23;;;6.35;;
60352;SDS011;46196;52.970;6.954;2022-12-18T13:41:44;9.40;;;6.00;;
60352;SDS011;46196;52.970;6.954;2022-12-18T13:44:12;8.68;;;5.57;;
60352;SDS011;46196;52.970;6.954;2022-12-18T13:46:45;10.05;;;6.00;;
60352;SDS011;46196;52.970;6.954;2022-12-18T13:51:39;8.73;;;6.13;;
60352;SDS011;46196;52.970;6.954;2022-12-18T13:56:58;9.50;;;6.45;;
60352;SDS011;46196;52.970;6.954;2022-12-18T13:59:24;11.00;;;5.60;;
60352;SDS011;46196;52.970;6.954;2022-12-18T14:04:21;9.05;;;6.63;;
60352;SDS011;46196;52.970;6.954;2022-12-18T14:06:53;11.43;;;6.93;;
60352;SDS011;46196;52.970;6.954;2022-12-18T14:09:26;10.23;;;7.03;;
60352;SDS011;46196;52.970;6.954;2022-12-18T14:11:55;10.45;;;6.43;;
60352;SDS011;46196;52.970;6.954;2022-12-18T14:14:43;16.92;;;6.57;;
60352;SDS011;46196;52.970;6.954;2022-12-18T14:17:11;10.23;;;6.72;;
60352;SDS011;46196;52.970;6.954;2022-12-18T14:19:42;13.65;;;8.88;;
60352;SDS011;46196;52.970;6.954;2022-12-18T14:22:14;10.63;;;6.82;;
60352;SDS011;46196;52.970;6.954;2022-12-18T14:24:45;12.45;;;7.55;;
60352;SDS011;46196;52.970;6.954;2022-12-18T14:27:22;10.25;;;7.65;;
60352;SDS011;46196;52.970;6.954;2022-12-18T14:29:50;13.60;;;9.88;;
60352;SDS011;46196;52.970;6.954;2022-12-18T14:32:17;10.88;;;6.97;;
60352;SDS011;46196;52.970;6.954;2022-12-18T14:35:12;11.55;;;7.45;;
60352;SDS011;46196;52.970;6.954;2022-12-18T14:37:38;9.68;;;6.80;;
60352;SDS011;46196;52.970;6.954;2022-12-18T14:40:04;9.32;;;6.88;;
60352;SDS011;46196;52.970;6.954;2022-12-18T14:42:30;9.90;;;6.97;;
60352;SDS011;46196;52.970;6.954;2022-12-18T14:51:17;10.88;;;6.50;;
60352;SDS011;46196;52.970;6.954;2022-12-18T14:53:52;10.88;;;7.25;;
60352;SDS011;46196;52.970;6.954;2022-12-18T14:56:31;11.18;;;7.35;;
60352;SDS011;46196;52.970;6.954;2022-12-18T14:59:02;11.43;;;7.85;;
60352;SDS011;46196;52.970;6.954;2022-12-18T15:01:31;8.40;;;5.97;;
60352;SDS011;46196;52.970;6.954;2022-12-18T15:04:00;9.25;;;6.95;;
60352;SDS011;46196;52.970;6.954;2022-12-18T15:06:30;10.25;;;6.63;;
60352;SDS011;46196;52.970;6.954;2022-12-18T15:09:03;9.80;;;6.65;;
60352;SDS011;46196;52.970;6.954;2022-12-18T15:11:57;10.80;;;6.47;;
60352;SDS011;46196;52.970;6.954;2022-12-18T15:14:32;10.88;;;7.22;;
60352;SDS011;46196;52.970;6.954;2022-12-18T15:17:00;8.82;;;6.20;;
60352;SDS011;46196;52.970;6.954;2022-12-18T15:22:00;9.07;;;7.30;;
60352;SDS011;46196;52.970;6.954;2022-12-18T15:24:27;11.27;;;7.82;;
60352;SDS011;46196;52.970;6.954;2022-12-18T15:29:22;9.95;;;7.18;;
60352;SDS011;46196;52.970;6.954;2022-12-18T15:34:27;10.73;;;7.22;;
60352;SDS011;46196;52.970;6.954;2022-12-18T15:36:53;11.68;;;7.95;;
60352;SDS011;46196;52.970;6.954;2022-12-18T15:39:19;10.02;;;6.47;;
60352;SDS011;46196;52.970;6.954;2022-12-18T15:41:45;7.65;;;5.65;;
60352;SDS011;46196;52.970;6.954;2022-12-18T15:44:30;11.70;;;6.70;;
60352;SDS011;46196;52.970;6.954;2022-12-18T15:46:56;11.23;;;8.15;;
60352;SDS011;46196;52.970;6.954;2022-12-18T15:49:22;11.23;;;6.80;;
60352;SDS011;46196;52.970;6.954;2022-12-18T15:51:58;13.32;;;7.07;;
60352;SDS011;46196;52.970;6.954;2022-12-18T15:54:24;11.55;;;7.90;;
60352;SDS011;46196;52.970;6.954;2022-12-18T15:57:10;12.77;;;7.60;;
60352;SDS011;46196;52.970;6.954;2022-12-18T15:59:48;8.27;;;5.77;;
60352;SDS011;46196;52.970;6.954;2022-12-18T16:02:18;9.30;;;6.47;;
60352;SDS011;46196;52.970;6.954;2022-12-18T16:04:45;14.27;;;9.02;;
60352;SDS011;46196;52.970;6.954;2022-12-18T16:07:11;8.80;;;5.97;;
60352;SDS011;46196;52.970;6.954;2022-12-18T16:09:37;10.35;;;7.20;;
60352;SDS011;46196;52.970;6.954;2022-12-18T16:12:04;10.77;;;7.28;;
60352;SDS011;46196;52.970;6.954;2022-12-18T16:14:31;8.25;;;6.20;;
60352;SDS011;46196;52.970;6.954;2022-12-18T16:17:01;9.85;;;6.28;;
60352;SDS011;46196;52.970;6.954;2022-12-18T16:19:30;9.38;;;6.30;;
60352;SDS011;46196;52.970;6.954;2022-12-18T16:21:56;9.38;;;5.97;;
60352;SDS011;46196;52.970;6.954;2022-12-18T16:24:25;9.25;;;5.93;;
60352;SDS011;46196;52.970;6.954;2022-12-18T16:26:52;8.73;;;6.80;;
60352;SDS011;46196;52.970;6.954;2022-12-18T16:29:19;11.38;;;7.28;;
60352;SDS011;46196;52.970;6.954;2022-12-18T16:31:50;8.63;;;5.18;;
60352;SDS011;46196;52.970;6.954;2022-12-18T16:36:56;7.35;;;5.00;;
60352;SDS011;46196;52.970;6.954;2022-12-18T16:39:24;16.33;;;7.30;;
60352;SDS011;46196;52.970;6.954;2022-12-18T16:41:50;10.90;;;6.35;;
60352;SDS011;46196;52.970;6.954;2022-12-18T16:44:16;7.72;;;5.40;;
60352;SDS011;46196;52.970;6.954;2022-12-18T16:46:42;10.27;;;5.93;;
60352;SDS011;46196;52.970;6.954;2022-12-18T16:49:10;8.68;;;5.82;;